Time;durP1;ratioP1;P1;durP2;ratioP2;P2;SDS_P1;SDS_P2;PMS_P1;PMS_P2;Temp;Humidity;BMP_temperature;BMP_pressure;BME280_temperature;BME280_humidity;BME280_pressure;Samples;Min_cycle;Max_cycle;Signal;HPM_P1;HPM_P2
2023/12/16 00:01:50;;;;;;;1.77;0.90;;;29.60;30.50;;;;;;5003719;28;20172;-84
2023/12/16 00:04:17;;;;;;;0.95;0.80;;;29.70;31.70;;;;;;5009880;28;20584;-84
2023/12/16 00:06:44;;;;;;;1.85;0.90;;;29.80;32.30;;;;;;5008818;28;20038;-86
2023/12/16 00:09:12;;;;;;;1.80;0.90;;;29.90;28.90;;;;;;5003513;28;20034;-82
2023/12/16 00:11:40;;;;;;;4.38;1.15;;;30.00;29.00;;;;;;5025509;28;20058;-87
2023/12/16 00:14:07;;;;;;;2.15;1.00;;;30.00;27.70;;;;;;5011922;28;20045;-80
2023/12/16 00:16:34;;;;;;;4.25;0.70;;;30.20;27.90;;;;;;5007717;28;20030;-88
2023/12/16 00:19:02;;;;;;;1.17;0.80;;;30.20;28.30;;;;;;5012466;28;20037;-79
2023/12/16 00:21:29;;;;;;;3.00;1.00;;;30.20;28.80;;;;;;5010009;28;20026;-83
2023/12/16 00:23:57;;;;;;;2.83;0.77;;;30.20;27.20;;;;;;5024645;28;20025;-87
2023/12/16 00:26:24;;;;;;;2.88;0.90;;;30.30;27.80;;;;;;5012123;28;20036;-80
2023/12/16 00:28:51;;;;;;;2.53;1.10;;;30.30;27.70;;;;;;5013626;28;20473;-83
2023/12/16 00:31:19;;;;;;;2.45;0.93;;;30.30;27.70;;;;;;5015533;28;20523;-81
2023/12/16 00:33:48;;;;;;;3.00;0.82;;;30.30;28.30;;;;;;5014828;28;20026;-81
2023/12/16 00:36:16;;;;;;;2.63;0.80;;;30.40;28.00;;;;;;5016461;28;20033;-85
2023/12/16 00:38:43;;;;;;;1.58;0.85;;;30.50;28.30;;;;;;5015645;28;20022;-83
2023/12/16 00:41:11;;;;;;;1.98;0.82;;;30.50;27.90;;;;;;5012770;28;20367;-83
2023/12/16 00:43:38;;;;;;;3.15;0.70;;;30.60;30.00;;;;;;4999635;28;20030;-86
2023/12/16 00:46:07;;;;;;;2.33;0.82;;;30.70;29.50;;;;;;5015314;28;20496;-83
2023/12/16 00:48:35;;;;;;;2.50;0.75;;;30.80;27.30;;;;;;5014932;28;20040;-88
2023/12/16 00:51:02;;;;;;;4.75;0.80;;;30.80;26.00;;;;;;5017027;28;20033;-81
2023/12/16 00:53:30;;;;;;;4.82;0.75;;;30.90;26.00;;;;;;5023525;28;20042;-87
2023/12/16 00:55:57;;;;;;;3.28;0.70;;;31.00;25.50;;;;;;5013461;28;20105;-79
2023/12/16 00:58:25;;;;;;;1.05;0.90;;;31.10;24.90;;;;;;5014993;28;20049;-82
2023/12/16 01:00:52;;;;;;;2.28;0.90;;;31.30;25.70;;;;;;5015954;28;20022;-80
2023/12/16 01:03:20;;;;;;;1.10;0.70;;;31.50;24.70;;;;;;5016693;28;20028;-87
2023/12/16 01:05:47;;;;;;;1.05;0.80;;;31.50;23.60;;;;;;5019123;28;20120;-83
2023/12/16 01:08:15;;;;;;;2.00;0.80;;;31.60;24.30;;;;;;5013655;28;20060;-85
2023/12/16 01:10:45;;;;;;;1.10;0.70;;;31.70;26.10;;;;;;4998704;28;20421;-82
2023/12/16 01:13:13;;;;;;;2.40;0.80;;;31.70;23.90;;;;;;5013616;28;20038;-82
2023/12/16 01:15:43;;;;;;;4.78;0.82;;;31.80;23.80;;;;;;5014883;28;20084;-84
2023/12/16 01:18:13;;;;;;;1.77;1.25;;;31.80;23.60;;;;;;5013920;28;20033;-87
2023/12/16 01:20:41;;;;;;;1.80;0.70;;;31.90;23.80;;;;;;5015801;28;20018;-83
2023/12/16 01:23:08;;;;;;;1.88;0.85;;;31.90;24.00;;;;;;5014958;28;20038;-88
2023/12/16 01:25:35;;;;;;;1.77;0.68;;;32.00;22.30;;;;;;5017641;28;20022;-87
2023/12/16 01:28:03;;;;;;;0.80;0.70;;;32.20;22.00;;;;;;5016207;28;20477;-86
2023/12/16 01:30:30;;;;;;;1.25;0.70;;;32.20;20.20;;;;;;5020168;28;20033;-88
2023/12/16 01:32:59;;;;;;;4.07;0.90;;;32.30;21.20;;;;;;5017191;28;20034;-80
2023/12/16 01:35:26;;;;;;;1.58;0.70;;;32.30;20.70;;;;;;5028118;28;20034;-92
2023/12/16 01:37:53;;;;;;;1.90;0.77;;;32.40;21.50;;;;;;5015280;28;20052;-82
2023/12/16 01:40:21;;;;;;;2.55;0.80;;;32.50;20.70;;;;;;5017566;28;20030;-79
2023/12/16 01:42:51;;;;;;;1.45;0.80;;;32.60;21.80;;;;;;5020789;28;20048;-85
2023/12/16 01:45:19;;;;;;;2.30;0.85;;;32.60;22.40;;;;;;5018384;28;20072;-84
2023/12/16 01:47:46;;;;;;;4.50;0.70;;;32.60;21.00;;;;;;5034451;28;20084;-82
2023/12/16 01:50:14;;;;;;;1.40;0.95;;;32.60;21.00;;;;;;5021780;28;20030;-80
2023/12/16 01:52:42;;;;;;;1.83;0.70;;;32.60;19.40;;;;;;5022803;28;20084;-81
2023/12/16 01:55:12;;;;;;;2.05;0.85;;;32.70;21.30;;;;;;5017306;28;20151;-84
2023/12/16 01:57:41;;;;;;;1.27;0.68;;;32.80;22.00;;;;;;5011249;28;20112;-83
2023/12/16 02:00:09;;;;;;;0.68;0.60;;;32.80;22.20;;;;;;5011068;28;20041;-82
2023/12/16 02:02:36;;;;;;;1.17;0.60;;;32.90;21.10;;;;;;5012749;28;20048;-81
2023/12/16 02:05:04;;;;;;;1.77;0.70;;;32.80;20.00;;;;;;5014043;28;20046;-86
2023/12/16 02:07:31;;;;;;;11.05;1.23;;;32.80;18.70;;;;;;5007666;28;20068;-83
2023/12/16 02:10:01;;;;;;;1.10;0.60;;;32.90;20.20;;;;;;5011560;28;20102;-80
2023/12/16 02:12:28;;;;;;;1.33;0.70;;;32.90;22.40;;;;;;5011302;28;20041;-84
2023/12/16 02:14:58;;;;;;;1.05;0.80;;;33.00;21.50;;;;;;5024513;28;20133;-84
2023/12/16 02:17:25;;;;;;;1.45;0.70;;;33.10;21.20;;;;;;5010150;28;20029;-85
2023/12/16 02:19:55;;;;;;;1.33;0.75;;;33.20;21.50;;;;;;5010289;28;20026;-85
2023/12/16 02:22:22;;;;;;;4.00;0.90;;;33.30;21.80;;;;;;5012218;28;21384;-92
2023/12/16 02:24:51;;;;;;;7.57;1.00;;;33.30;20.90;;;;;;5010677;28;20477;-92
2023/12/16 02:27:19;;;;;;;4.13;0.73;;;33.30;21.70;;;;;;5007897;28;20022;-91
2023/12/16 02:29:46;;;;;;;1.73;0.80;;;33.30;20.20;;;;;;5012380;28;20036;-86
2023/12/16 02:32:15;;;;;;;2.40;1.58;;;33.40;20.80;;;;;;5019711;28;20037;-85
2023/12/16 02:34:42;;;;;;;3.83;1.83;;;33.40;23.90;;;;;;5011150;28;20108;-86
2023/12/16 02:37:10;;;;;;;6.90;2.10;;;33.60;30.70;;;;;;5011416;28;20440;-87
2023/12/16 02:39:38;;;;;;;7.28;2.45;;;33.50;31.00;;;;;;5014890;28;20018;-78
2023/12/16 02:42:05;;;;;;;6.13;1.45;;;33.40;31.70;;;;;;5014270;28;20488;-85
2023/12/16 02:44:33;;;;;;;1.65;0.77;;;33.20;27.50;;;;;;5020244;28;20061;-82
2023/12/16 02:47:00;;;;;;;3.45;1.50;;;33.20;18.90;;;;;;5012643;28;20057;-78
2023/12/16 02:49:28;;;;;;;3.88;2.22;;;33.20;25.90;;;;;;5010013;28;20026;-83
2023/12/16 02:51:58;;;;;;;3.03;1.20;;;33.30;30.70;;;;;;5008777;28;20033;-78
2023/12/16 02:54:26;;;;;;;2.97;0.70;;;33.30;26.30;;;;;;5013006;28;20421;-83
2023/12/16 02:56:54;;;;;;;1.92;1.10;;;33.20;21.00;;;;;;5012545;28;20055;-82
2023/12/16 02:59:21;;;;;;;1.60;0.88;;;33.30;20.00;;;;;;5009740;28;20428;-84
2023/12/16 03:01:49;;;;;;;2.28;1.10;;;33.30;18.60;;;;;;5014465;28;20022;-77
2023/12/16 03:04:16;;;;;;;10.80;1.98;;;33.40;22.60;;;;;;5006823;28;20069;-81
2023/12/16 03:06:44;;;;;;;7.15;2.20;;;33.60;27.30;;;;;;5015994;28;20030;-78
2023/12/16 03:09:15;;;;;;;3.95;1.85;;;33.70;29.60;;;;;;5009864;28;20968;-77
2023/12/16 03:11:43;;;;;;;8.93;2.28;;;33.60;30.50;;;;;;5007323;28;20049;-76
2023/12/16 03:14:10;;;;;;;5.53;1.90;;;33.50;31.10;;;;;;5010564;28;20034;-79
2023/12/16 03:16:38;;;;;;;4.88;2.20;;;33.40;31.90;;;;;;5013978;28;20354;-84
2023/12/16 03:19:05;;;;;;;4.72;1.95;;;33.30;32.60;;;;;;5012360;28;20469;-78
2023/12/16 03:21:33;;;;;;;3.78;2.08;;;33.30;32.00;;;;;;5011267;28;20045;-86
2023/12/16 03:24:00;;;;;;;4.18;2.00;;;33.60;31.80;;;;;;5011046;28;20156;-77
2023/12/16 03:26:27;;;;;;;4.55;1.90;;;33.60;32.30;;;;;;5001821;28;20053;-81
2023/12/16 03:28:55;;;;;;;3.95;1.77;;;33.60;31.30;;;;;;5009027;28;20080;-78
2023/12/16 03:31:23;;;;;;;6.35;2.00;;;33.60;31.30;;;;;;5006847;28;20033;-83
2023/12/16 03:33:50;;;;;;;6.78;2.10;;;33.50;32.80;;;;;;5006817;28;20030;-81
2023/12/16 03:36:17;;;;;;;4.78;2.15;;;33.50;33.90;;;;;;5005051;28;20482;-83
2023/12/16 03:38:45;;;;;;;5.43;2.38;;;33.40;34.80;;;;;;5013707;28;20036;-83
2023/12/16 03:41:15;;;;;;;4.20;2.05;;;33.40;34.80;;;;;;5007130;28;20032;-80
2023/12/16 03:43:42;;;;;;;7.78;2.38;;;33.40;34.50;;;;;;5013294;28;20087;-87
2023/12/16 03:46:10;;;;;;;5.40;2.30;;;33.30;34.90;;;;;;5008096;28;20064;-85
2023/12/16 03:48:37;;;;;;;5.05;2.47;;;33.30;33.80;;;;;;5008077;28;20022;-83
2023/12/16 03:51:06;;;;;;;7.07;2.50;;;33.30;34.70;;;;;;5005462;28;20089;-88
2023/12/16 03:53:34;;;;;;;5.85;2.35;;;33.30;35.20;;;;;;5009074;28;20049;-81
2023/12/16 03:56:03;;;;;;;4.70;2.20;;;33.30;35.70;;;;;;5004348;28;20061;-79
2023/12/16 03:58:31;;;;;;;3.75;1.92;;;33.20;35.30;;;;;;5018882;28;20067;-80
2023/12/16 04:00:58;;;;;;;3.13;1.60;;;33.10;34.80;;;;;;5007073;28;20022;-83
2023/12/16 04:03:25;;;;;;;3.70;1.65;;;33.00;33.60;;;;;;5012600;28;20026;-83
2023/12/16 04:05:53;;;;;;;3.92;1.63;;;33.00;32.70;;;;;;5008219;28;20042;-78
2023/12/16 04:08:20;;;;;;;4.43;1.52;;;33.00;32.50;;;;;;5009067;28;20481;-83
2023/12/16 04:10:48;;;;;;;8.52;1.90;;;33.10;33.40;;;;;;5015088;28;20061;-80
2023/12/16 04:13:15;;;;;;;3.03;1.40;;;33.10;34.00;;;;;;5010340;28;20034;-83
2023/12/16 04:15:43;;;;;;;2.72;1.38;;;33.10;33.60;;;;;;5012420;28;20029;-78
2023/12/16 04:18:10;;;;;;;5.70;2.00;;;33.10;34.20;;;;;;5013904;28;20022;-80
2023/12/16 04:20:37;;;;;;;4.35;1.70;;;33.10;34.60;;;;;;5010401;28;20036;-79
2023/12/16 04:23:05;;;;;;;3.15;1.85;;;33.10;34.70;;;;;;5009329;28;20033;-81
2023/12/16 04:25:32;;;;;;;3.42;1.70;;;33.10;35.00;;;;;;5008132;28;20385;-76
2023/12/16 04:27:59;;;;;;;3.40;1.48;;;33.10;35.10;;;;;;5010439;28;20032;-78
2023/12/16 04:30:27;;;;;;;3.08;1.88;;;33.10;36.40;;;;;;5008193;28;20025;-83
2023/12/16 04:32:54;;;;;;;5.13;1.80;;;33.00;36.90;;;;;;5010786;28;20495;-81
2023/12/16 04:35:22;;;;;;;5.13;2.15;;;32.90;35.10;;;;;;5008280;28;20478;-77
2023/12/16 04:37:49;;;;;;;5.68;2.03;;;32.90;35.10;;;;;;5013941;28;20069;-78
2023/12/16 04:40:16;;;;;;;3.00;1.95;;;32.80;36.10;;;;;;5011602;28;20023;-78
2023/12/16 04:42:44;;;;;;;3.17;1.73;;;32.90;36.70;;;;;;5015047;28;20024;-81
2023/12/16 04:45:12;;;;;;;4.65;1.88;;;32.90;36.50;;;;;;5009867;28;20030;-81
2023/12/16 04:47:39;;;;;;;5.72;1.80;;;32.90;36.10;;;;;;5011424;28;20168;-86
2023/12/16 04:50:07;;;;;;;4.05;1.60;;;32.90;35.20;;;;;;5010196;28;20030;-81
2023/12/16 04:52:34;;;;;;;4.90;1.75;;;32.90;35.70;;;;;;5003551;28;20473;-80
2023/12/16 04:55:03;;;;;;;3.15;1.50;;;32.80;34.20;;;;;;5005745;28;20476;-85
2023/12/16 04:57:30;;;;;;;3.08;1.38;;;32.80;33.60;;;;;;5011298;28;20054;-80
2023/12/16 04:59:57;;;;;;;2.83;1.42;;;32.70;32.90;;;;;;5009859;28;20022;-79
2023/12/16 05:02:25;;;;;;;4.78;1.38;;;32.70;33.50;;;;;;5016790;28;20362;-86
2023/12/16 05:04:52;;;;;;;3.80;1.25;;;32.60;32.80;;;;;;5009975;28;20035;-91
2023/12/16 05:07:19;;;;;;;2.67;1.20;;;32.60;33.80;;;;;;5007669;28;20056;-79
2023/12/16 05:09:47;;;;;;;2.95;1.48;;;32.50;33.90;;;;;;5008916;28;20501;-84
2023/12/16 05:12:14;;;;;;;5.90;1.80;;;32.50;33.40;;;;;;5009419;28;20034;-78
2023/12/16 05:14:42;;;;;;;2.38;1.60;;;32.40;33.20;;;;;;5011467;28;20421;-79
2023/12/16 05:17:09;;;;;;;2.28;1.30;;;32.50;32.80;;;;;;5013504;28;20030;-82
2023/12/16 05:19:36;;;;;;;3.20;1.38;;;32.60;34.20;;;;;;5011414;28;20420;-84
2023/12/16 05:22:04;;;;;;;3.95;1.58;;;32.60;33.90;;;;;;5010995;28;20021;-81
2023/12/16 05:24:31;;;;;;;6.15;1.85;;;32.50;34.70;;;;;;5015140;28;20689;-82
2023/12/16 05:26:59;;;;;;;5.07;1.80;;;32.30;34.20;;;;;;5011115;28;20054;-79
2023/12/16 05:29:26;;;;;;;1.92;1.52;;;32.30;33.40;;;;;;5012036;28;20034;-79
2023/12/16 05:31:53;;;;;;;1.63;1.10;;;32.20;34.10;;;;;;5011323;28;20022;-83
2023/12/16 05:34:21;;;;;;;4.38;1.10;;;32.10;34.00;;;;;;5016561;28;20561;-83
2023/12/16 05:36:50;;;;;;;4.13;1.42;;;32.20;33.10;;;;;;5010347;28;20041;-80
2023/12/16 05:39:17;;;;;;;4.75;1.25;;;32.30;34.00;;;;;;5012151;28;20030;-82
2023/12/16 05:41:45;;;;;;;3.20;1.00;;;32.20;32.50;;;;;;5012393;28;20025;-81
2023/12/16 05:44:13;;;;;;;2.05;1.35;;;32.30;31.70;;;;;;5012139;28;20081;-82
2023/12/16 05:46:40;;;;;;;4.78;1.40;;;32.20;33.40;;;;;;5007579;28;20457;-82
2023/12/16 05:49:07;;;;;;;3.75;1.40;;;32.10;34.40;;;;;;5010883;28;20489;-79
2023/12/16 05:51:43;;;;;;;2.38;1.85;;;32.10;33.70;;;;;;5005719;28;20030;-79
2023/12/16 05:54:13;;;;;;;4.13;1.50;;;32.00;34.30;;;;;;5013067;28;20489;-81
2023/12/16 05:56:40;;;;;;;2.78;1.40;;;31.90;34.00;;;;;;5016648;28;20026;-80
2023/12/16 05:59:08;;;;;;;5.72;1.45;;;31.80;35.10;;;;;;5013061;28;20030;-79
2023/12/16 06:01:35;;;;;;;1.60;1.30;;;31.80;34.90;;;;;;5011227;28;20013;-79
2023/12/16 06:04:02;;;;;;;3.10;1.50;;;31.80;34.30;;;;;;5004685;28;20096;-81
2023/12/16 06:06:30;;;;;;;5.15;1.50;;;31.90;34.30;;;;;;5012705;28;20567;-80
2023/12/16 06:09:00;;;;;;;2.58;1.20;;;31.90;34.30;;;;;;5009221;28;20049;-82
2023/12/16 06:11:28;;;;;;;2.90;1.40;;;31.90;35.40;;;;;;5009906;28;20380;-81
2023/12/16 06:13:55;;;;;;;2.60;1.17;;;31.80;35.30;;;;;;5010630;28;20465;-81
2023/12/16 06:16:24;;;;;;;1.83;1.30;;;31.70;35.50;;;;;;5012361;28;20461;-81
2023/12/16 06:18:54;;;;;;;3.88;1.30;;;31.70;35.90;;;;;;5011851;28;20393;-81
2023/12/16 06:21:22;;;;;;;2.40;1.30;;;31.70;36.20;;;;;;5014622;28;20490;-80
2023/12/16 06:23:49;;;;;;;4.57;1.60;;;31.70;36.10;;;;;;5013379;28;20045;-82
2023/12/16 06:26:17;;;;;;;9.15;1.40;;;31.60;35.90;;;;;;5013656;28;20014;-80
2023/12/16 06:28:45;;;;;;;3.38;1.70;;;31.60;34.70;;;;;;5008274;28;20041;-80
2023/12/16 06:31:16;;;;;;;3.78;1.85;;;31.50;35.30;;;;;;5005272;28;20088;-82
2023/12/16 06:33:44;;;;;;;5.03;2.03;;;31.40;36.70;;;;;;5007846;28;20069;-80
2023/12/16 06:36:11;;;;;;;4.40;1.70;;;31.40;37.80;;;;;;5006468;28;20033;-82
2023/12/16 06:38:39;;;;;;;1.65;1.25;;;31.40;37.50;;;;;;5006119;28;20048;-84
2023/12/16 06:41:07;;;;;;;5.03;1.55;;;31.50;37.60;;;;;;5008531;28;20052;-83
2023/12/16 06:43:34;;;;;;;2.65;1.58;;;31.50;36.80;;;;;;5007025;28;20045;-76
2023/12/16 06:46:01;;;;;;;4.25;1.70;;;31.50;35.40;;;;;;5007386;28;20640;-82
2023/12/16 06:48:29;;;;;;;6.10;1.48;;;31.40;35.70;;;;;;5021716;28;20048;-83
2023/12/16 06:50:59;;;;;;;3.95;1.80;;;31.40;36.10;;;;;;5015965;28;20473;-84
2023/12/16 06:53:26;;;;;;;3.67;1.50;;;31.50;35.60;;;;;;5011448;28;20042;-82
2023/12/16 06:55:54;;;;;;;5.47;1.90;;;31.60;36.30;;;;;;5013585;28;20420;-85
2023/12/16 06:58:21;;;;;;;4.90;1.60;;;31.60;36.40;;;;;;5005671;28;20033;-82
2023/12/16 07:00:49;;;;;;;3.85;1.42;;;31.50;36.20;;;;;;5003264;28;20052;-83
2023/12/16 07:03:17;;;;;;;3.28;1.55;;;31.30;36.00;;;;;;5013213;28;20026;-85
2023/12/16 07:05:45;;;;;;;5.60;1.42;;;31.30;35.90;;;;;;5021921;28;20054;-82
2023/12/16 07:08:13;;;;;;;3.65;1.40;;;31.30;35.90;;;;;;5014657;28;20061;-81
2023/12/16 07:10:40;;;;;;;3.60;1.30;;;31.30;34.40;;;;;;5010400;28;20045;-81
2023/12/16 07:13:08;;;;;;;2.40;1.30;;;31.30;35.40;;;;;;5012645;28;20045;-82
2023/12/16 07:15:35;;;;;;;2.55;1.30;;;31.40;35.00;;;;;;5010490;28;20385;-82
2023/12/16 07:18:03;;;;;;;5.97;1.80;;;31.50;35.70;;;;;;5013932;28;20024;-83
2023/12/16 07:20:30;;;;;;;3.92;1.50;;;31.60;35.40;;;;;;5012129;28;20030;-83
2023/12/16 07:22:58;;;;;;;3.88;1.60;;;31.60;35.80;;;;;;5007715;28;20022;-84
2023/12/16 07:25:25;;;;;;;4.60;1.63;;;31.60;34.20;;;;;;5017136;28;20465;-83
2023/12/16 07:27:54;;;;;;;3.13;1.40;;;31.50;34.80;;;;;;5022981;28;20045;-84
2023/12/16 07:30:21;;;;;;;6.50;2.15;;;31.50;35.80;;;;;;5010808;28;20022;-81
2023/12/16 07:32:51;;;;;;;4.28;2.60;;;31.50;35.20;;;;;;5007020;28;20084;-82
2023/12/16 07:35:19;;;;;;;6.13;2.70;;;31.60;36.30;;;;;;5006508;28;20040;-83
2023/12/16 07:37:46;;;;;;;6.20;2.63;;;31.60;36.90;;;;;;5010075;28;20026;-82
2023/12/16 07:40:13;;;;;;;5.97;2.60;;;31.70;39.70;;;;;;5010958;28;20041;-83
2023/12/16 07:42:41;;;;;;;5.50;2.70;;;31.70;40.80;;;;;;5007457;28;20037;-85
2023/12/16 07:45:09;;;;;;;6.13;2.58;;;31.70;41.10;;;;;;5010184;28;20183;-83
2023/12/16 07:47:38;;;;;;;6.55;2.20;;;31.60;41.40;;;;;;5007698;28;20044;-85
2023/12/16 07:50:06;;;;;;;8.43;2.80;;;31.50;40.90;;;;;;5006005;28;20084;-85
2023/12/16 07:52:33;;;;;;;6.53;3.55;;;31.30;43.70;;;;;;5006284;28;20096;-86
2023/12/16 07:55:02;;;;;;;6.68;3.20;;;31.10;43.80;;;;;;5007459;28;20058;-88
2023/12/16 07:57:30;;;;;;;6.35;2.90;;;31.00;44.20;;;;;;5010537;28;20378;-85
2023/12/16 07:59:57;;;;;;;11.13;4.05;;;30.80;44.40;;;;;;5009372;28;20018;-88
2023/12/16 08:02:25;;;;;;;7.63;3.70;;;30.70;44.60;;;;;;5012304;28;20014;-86
2023/12/16 08:04:53;;;;;;;8.02;4.13;;;30.60;44.90;;;;;;5005671;28;20038;-81
2023/12/16 08:07:21;;;;;;;10.65;2.70;;;30.50;45.00;;;;;;5012672;28;20087;-89
2023/12/16 08:09:49;;;;;;;4.72;2.50;;;30.40;43.90;;;;;;5009284;28;20030;-87
2023/12/16 08:12:16;;;;;;;7.63;3.03;;;30.30;43.60;;;;;;5014884;28;20087;-88
2023/12/16 08:14:44;;;;;;;5.85;2.50;;;30.30;44.30;;;;;;5012329;28;20076;-86
2023/12/16 08:17:11;;;;;;;8.07;2.35;;;30.20;43.70;;;;;;5017542;28;20056;-88
2023/12/16 08:19:40;;;;;;;6.65;2.40;;;30.00;43.40;;;;;;5013933;28;20430;-88
2023/12/16 08:22:07;;;;;;;4.78;2.80;;;29.90;43.90;;;;;;5013224;28;20049;-84
2023/12/16 08:24:34;;;;;;;4.60;2.35;;;29.80;43.40;;;;;;5019897;28;20021;-89
2023/12/16 08:27:02;;;;;;;6.80;2.58;;;29.70;43.20;;;;;;5013958;28;20026;-87
2023/12/16 08:29:29;;;;;;;8.60;2.95;;;29.60;43.40;;;;;;5017709;28;20388;-88
2023/12/16 08:31:57;;;;;;;15.40;5.10;;;29.50;43.10;;;;;;5012573;28;20128;-88
2023/12/16 08:34:24;;;;;;;8.68;3.65;;;29.30;44.20;;;;;;5016319;28;20038;-86
2023/12/16 08:36:52;;;;;;;8.27;3.40;;;29.20;50.90;;;;;;5013102;28;20448;-85
2023/12/16 08:39:19;;;;;;;9.90;4.35;;;28.90;53.30;;;;;;5017834;28;20112;-83
2023/12/16 08:41:46;;;;;;;6.43;3.53;;;28.80;55.70;;;;;;5018197;28;20037;-88
2023/12/16 08:44:15;;;;;;;10.52;3.60;;;28.60;55.40;;;;;;5009986;28;20037;-88
2023/12/16 08:46:43;;;;;;;12.60;3.83;;;28.50;57.10;;;;;;5009941;28;20485;-89
2023/12/16 08:49:10;;;;;;;13.10;3.28;;;28.40;59.30;;;;;;5018346;28;20034;-88
2023/12/16 08:51:40;;;;;;;18.10;4.43;;;28.30;60.60;;;;;;5017554;28;20448;-90
2023/12/16 08:54:07;;;;;;;12.00;3.15;;;27.90;62.10;;;;;;5014652;28;20026;-85
2023/12/16 08:56:37;;;;;;;16.08;3.75;;;27.70;62.80;;;;;;5014934;28;20049;-89
2023/12/16 08:59:04;;;;;;;16.98;4.05;;;27.50;62.30;;;;;;5017785;28;20033;-93
2023/12/16 09:01:32;;;;;;;11.95;2.70;;;27.40;64.20;;;;;;5016024;28;20022;-87
2023/12/16 09:03:59;;;;;;;12.85;3.28;;;27.20;64.40;;;;;;5013886;28;20077;-88
2023/12/16 09:06:27;;;;;;;17.33;3.47;;;27.00;64.10;;;;;;5007712;28;20413;-88
2023/12/16 09:09:01;;;;;;;13.60;3.45;;;26.90;64.80;;;;;;5019860;28;20388;-87
2023/12/16 09:11:28;;;;;;;12.73;3.22;;;26.90;64.90;;;;;;5010997;28;20030;-86
2023/12/16 09:13:55;;;;;;;16.50;4.18;;;26.80;64.50;;;;;;5010334;28;20061;-87
2023/12/16 09:16:23;;;;;;;11.05;2.75;;;26.80;65.10;;;;;;5013595;28;20033;-88
2023/12/16 09:18:53;;;;;;;14.80;3.40;;;26.70;65.20;;;;;;5013366;28;20120;-83
2023/12/16 09:21:20;;;;;;;12.77;3.40;;;26.60;65.30;;;;;;5009017;28;20033;-80
2023/12/16 09:23:48;;;;;;;10.30;2.40;;;26.50;65.00;;;;;;5008805;28;20022;-83
2023/12/16 09:26:16;;;;;;;13.90;3.35;;;26.50;64.90;;;;;;5011242;28;20493;-86
2023/12/16 09:28:43;;;;;;;16.10;4.35;;;26.50;65.20;;;;;;5014006;28;20539;-84
2023/12/16 09:31:10;;;;;;;11.88;3.00;;;26.50;65.30;;;;;;5012469;28;20026;-84
2023/12/16 09:33:38;;;;;;;18.35;5.97;;;26.40;65.20;;;;;;5015644;28;20038;-85
2023/12/16 09:36:06;;;;;;;11.52;6.70;;;26.30;65.00;;;;;;5013129;28;20033;-83
2023/12/16 09:38:33;;;;;;;10.65;4.78;;;26.30;65.50;;;;;;5020858;28;20108;-89
2023/12/16 09:41:01;;;;;;;9.93;3.28;;;26.20;65.60;;;;;;5012106;28;20022;-90
2023/12/16 09:43:36;;;;;;;13.38;3.25;;;26.20;65.30;;;;;;5012602;28;20042;-87
2023/12/16 09:46:03;;;;;;;12.25;3.28;;;26.00;65.70;;;;;;5012279;28;20361;-86
2023/12/16 09:48:31;;;;;;;6.07;2.03;;;26.00;66.00;;;;;;5013822;28;20030;-84
2023/12/16 09:50:59;;;;;;;7.70;2.80;;;25.90;66.00;;;;;;5012597;28;20025;-92
2023/12/16 09:53:26;;;;;;;10.70;3.75;;;25.80;65.90;;;;;;5012600;28;20099;-82
2023/12/16 09:55:54;;;;;;;14.95;2.80;;;25.90;65.90;;;;;;5015040;28;20018;-81
2023/12/16 09:58:21;;;;;;;13.93;2.58;;;25.90;66.10;;;;;;5012264;28;20022;-86
2023/12/16 10:00:50;;;;;;;11.95;2.75;;;25.90;66.10;;;;;;5008027;28;20065;-86
2023/12/16 10:03:17;;;;;;;11.13;2.75;;;25.80;66.50;;;;;;5012081;28;20520;-87
2023/12/16 10:05:49;;;;;;;15.90;3.72;;;25.80;66.70;;;;;;5014073;28;20068;-86
2023/12/16 10:08:19;;;;;;;19.67;5.55;;;25.80;66.90;;;;;;5014561;28;20026;-87
2023/12/16 10:10:48;;;;;;;51.35;40.65;;;25.80;67.00;;;;;;5017168;28;20437;-85
2023/12/16 10:13:15;;;;;;;12.20;3.20;;;25.80;66.50;;;;;;5014986;28;20149;-82
2023/12/16 10:15:43;;;;;;;15.43;3.40;;;25.80;66.30;;;;;;5014221;28;20037;-87
2023/12/16 10:18:11;;;;;;;10.73;3.72;;;25.80;66.30;;;;;;5012667;28;20123;-81
2023/12/16 10:20:38;;;;;;;37.17;29.17;;;25.80;66.10;;;;;;5012965;28;20026;-81
2023/12/16 10:23:11;;;;;;;13.70;4.20;;;25.80;66.40;;;;;;5014534;28;20036;-86
2023/12/16 10:25:40;;;;;;;14.45;2.92;;;25.80;66.40;;;;;;5013788;28;20029;-85
2023/12/16 10:28:08;;;;;;;16.38;3.15;;;25.80;66.70;;;;;;5012627;28;20103;-87
2023/12/16 10:30:35;;;;;;;13.68;3.35;;;25.80;67.00;;;;;;5011110;28;20366;-84
2023/12/16 10:33:03;;;;;;;17.83;7.13;;;25.60;67.00;;;;;;5006578;28;20489;-83
2023/12/16 10:35:32;;;;;;;12.90;3.72;;;25.60;67.30;;;;;;5014590;28;20022;-83
2023/12/16 10:38:02;;;;;;;12.73;2.67;;;25.60;67.50;;;;;;5012869;28;20362;-87
2023/12/16 10:40:31;;;;;;;13.73;2.78;;;25.50;67.50;;;;;;5011519;28;20072;-86
2023/12/16 10:42:59;;;;;;;13.68;3.45;;;25.50;67.70;;;;;;5013516;28;20023;-86
2023/12/16 10:45:26;;;;;;;11.27;2.53;;;25.40;68.10;;;;;;5010516;28;20116;-88
2023/12/16 10:47:58;;;;;;;13.00;3.50;;;25.40;68.30;;;;;;5011537;28;20076;-89
2023/12/16 10:50:27;;;;;;;14.85;2.78;;;25.30;68.30;;;;;;5012641;28;20381;-85
2023/12/16 10:52:57;;;;;;;13.07;2.60;;;25.30;68.60;;;;;;5015813;28;20489;-85
2023/12/16 10:55:31;;;;;;;27.77;16.45;;;25.20;68.70;;;;;;5011268;28;20113;-87
2023/12/16 10:58:16;;;;;;;18.87;5.27;;;25.20;68.90;;;;;;5013196;28;20021;-86
2023/12/16 11:00:51;;;;;;;11.80;3.95;;;25.20;69.00;;;;;;5013122;28;20123;-84
2023/12/16 11:03:28;;;;;;;14.93;6.20;;;25.10;68.70;;;;;;5020389;28;20022;-83
2023/12/16 11:06:12;;;;;;;16.50;3.83;;;25.20;68.90;;;;;;5016741;28;20072;-89
2023/12/16 11:08:41;;;;;;;17.08;3.70;;;25.10;68.80;;;;;;5011954;28;20181;-85
2023/12/16 11:11:09;;;;;;;11.95;4.55;;;25.00;68.90;;;;;;5010588;28;20042;-82
2023/12/16 11:13:37;;;;;;;23.05;5.97;;;25.00;69.30;;;;;;5005894;28;20121;-81
2023/12/16 11:16:17;;;;;;;13.13;4.40;;;24.90;69.30;;;;;;5010738;28;20069;-83
2023/12/16 11:18:48;;;;;;;12.13;3.30;;;24.90;69.40;;;;;;5006234;28;20021;-86
2023/12/16 11:21:19;;;;;;;11.32;2.17;;;24.90;69.30;;;;;;5014013;28;20029;-84
2023/12/16 11:23:48;;;;;;;9.55;2.63;;;24.90;69.20;;;;;;5014329;28;20033;-84
2023/12/16 11:26:20;;;;;;;10.68;3.40;;;24.90;69.00;;;;;;5019248;28;20434;-83
2023/12/16 11:28:54;;;;;;;8.70;2.20;;;24.90;69.00;;;;;;5005414;28;20072;-86
2023/12/16 11:31:22;;;;;;;11.43;2.80;;;24.90;68.80;;;;;;5009146;28;20022;-85
2023/12/16 11:33:50;;;;;;;8.70;2.83;;;24.90;68.60;;;;;;5013310;28;20040;-86
2023/12/16 11:36:19;;;;;;;13.35;3.03;;;24.90;68.50;;;;;;5013823;28;20022;-86
2023/12/16 11:38:47;;;;;;;9.48;2.03;;;24.90;68.10;;;;;;5010820;28;20069;-89
2023/12/16 11:41:35;;;;;;;9.68;2.22;;;24.90;68.00;;;;;;5010740;28;20113;-85
2023/12/16 11:44:03;;;;;;;16.85;3.45;;;24.90;67.80;;;;;;5010172;28;20021;-85
2023/12/16 11:46:40;;;;;;;9.65;2.50;;;25.00;67.80;;;;;;5008733;28;20017;-83
2023/12/16 11:49:11;;;;;;;12.88;2.75;;;24.90;67.50;;;;;;5008984;28;20563;-84
2023/12/16 11:51:39;;;;;;;11.30;3.42;;;24.90;67.50;;;;;;5009731;28;20103;-84
2023/12/16 11:54:11;;;;;;;13.73;2.85;;;24.90;67.10;;;;;;5010418;28;20444;-83
2023/12/16 11:56:39;;;;;;;9.73;2.45;;;24.80;67.40;;;;;;5009903;28;20281;-84
2023/12/16 11:59:07;;;;;;;11.57;2.53;;;24.80;67.40;;;;;;5011660;28;20053;-84
2023/12/16 12:01:35;;;;;;;7.03;2.20;;;24.70;67.30;;;;;;5009958;28;20492;-84
2023/12/16 12:04:04;;;;;;;9.90;2.20;;;24.70;67.60;;;;;;5015610;28;20026;-86
2023/12/16 12:06:32;;;;;;;10.95;2.10;;;24.70;67.40;;;;;;5010917;28;20053;-84
2023/12/16 12:09:00;;;;;;;10.55;2.53;;;24.70;67.40;;;;;;5010785;28;20034;-86
2023/12/16 12:11:27;;;;;;;11.88;2.88;;;24.60;67.60;;;;;;5010117;28;20029;-86
2023/12/16 12:13:55;;;;;;;14.23;3.08;;;24.60;67.60;;;;;;5011345;28;20033;-87
2023/12/16 12:16:28;;;;;;;21.00;3.63;;;24.60;67.40;;;;;;5012563;28;20025;-85
2023/12/16 12:18:56;;;;;;;8.82;2.10;;;24.60;67.40;;;;;;5010864;28;20029;-84
2023/12/16 12:21:24;;;;;;;13.02;4.95;;;24.50;67.50;;;;;;5010877;28;20108;-84
2023/12/16 12:23:51;;;;;;;11.30;2.80;;;24.50;67.60;;;;;;5019251;28;20080;-83
2023/12/16 12:26:22;;;;;;;9.88;2.50;;;24.50;67.60;;;;;;5012942;28;21607;-84
2023/12/16 12:29:02;;;;;;;8.95;2.72;;;24.50;67.80;;;;;;5011207;28;20045;-86
2023/12/16 12:31:31;;;;;;;7.40;2.42;;;24.40;67.80;;;;;;5012962;28;20066;-85
2023/12/16 12:33:58;;;;;;;7.55;2.45;;;24.40;68.00;;;;;;5017752;28;20456;-87
2023/12/16 12:36:25;;;;;;;14.15;2.28;;;24.50;67.80;;;;;;5027566;28;20022;-85
2023/12/16 12:38:54;;;;;;;10.80;2.33;;;24.50;67.70;;;;;;5016073;28;20473;-87
2023/12/16 12:41:21;;;;;;;10.50;2.22;;;24.50;67.80;;;;;;5016335;28;20025;-84
2023/12/16 12:43:49;;;;;;;9.80;2.00;;;24.50;67.70;;;;;;5018786;28;20049;-83
2023/12/16 12:46:20;;;;;;;9.02;2.53;;;24.40;67.80;;;;;;5020765;28;20526;-84
2023/12/16 12:48:55;;;;;;;12.23;3.58;;;24.40;67.90;;;;;;5018684;28;20045;-86